Time;durP1;ratioP1;P1;durP2;ratioP2;P2;SDS_P1;SDS_P2;PMS_P1;PMS_P2;Temp;Humidity;BMP_temperature;BMP_pressure;BME280_temperature;BME280_humidity;BME280_pressure;Samples;Min_cycle;Max_cycle;Signal;HPM_P1;HPM_P2
2022/11/11 00:00:36;;;;;;;;;;;;;;;24.12;55.97;98084.50;600436;236;42964;-66
2022/11/11 00:03:21;;;;;;;;;;;;;;;24.11;56.83;98088.23;600446;235;45910;-66
2022/11/11 00:06:08;;;;;;;;;;;;;;;24.11;56.28;98090.92;600458;236;39391;-67
2022/11/11 00:08:54;;;;;;;;;;;;;;;24.11;56.37;98087.44;600424;236;40523;-66
2022/11/11 00:11:39;;;;;;;;;;;;;;;24.10;57.48;98081.27;600388;236;40445;-66
2022/11/11 00:14:25;;;;;;;;;;;;;;;24.10;56.32;98085.84;600434;236;39275;-67
2022/11/11 00:26:26;;;;;;;;;;;;;;;24.07;56.71;98081.80;600432;236;43415;-68
2022/11/11 00:29:12;;;;;;;;;;;;;;;24.08;56.63;98077.23;600409;236;44609;-67
2022/11/11 00:38:09;;;;;;;;;;;;;;;24.04;57.65;98071.59;600446;236;41821;-68
2022/11/11 00:40:55;;;;;;;;;;;;;;;24.04;57.24;98070.79;600394;236;41126;-68
2022/11/11 00:43:41;;;;;;;;;;;;;;;24.02;56.72;98071.05;599951;236;43228;-68
2022/11/11 00:52:34;;;;;;;;;;;;;;;24.01;57.08;98074.81;599940;236;42949;-68
2022/11/11 00:55:19;;;;;;;;;;;;;;;24.00;55.96;98073.17;599939;236;44149;-68
2022/11/11 00:58:05;;;;;;;;;;;;;;;24.01;57.55;98073.98;599998;236;39158;-68
2022/11/11 01:00:55;;;;;;;;;;;;;;;24.01;56.73;98068.61;599970;236;43352;-68
2022/11/11 01:03:38;;;;;;;;;;;;;;;23.99;56.58;98068.89;599889;236;45257;-68
2022/11/11 01:06:24;;;;;;;;;;;;;;;23.99;58.26;98076.95;599964;236;39623;-68
2022/11/11 01:09:10;;;;;;;;;;;;;;;23.98;56.74;98074.52;599949;236;40301;-68
2022/11/11 01:11:55;;;;;;;;;;;;;;;23.97;57.06;98068.34;599883;236;40416;-68
2022/11/11 01:14:41;;;;;;;;;;;;;;;23.97;57.09;98060.29;599960;236;39069;-67
2022/11/11 01:17:28;;;;;;;;;;;;;;;23.97;57.29;98060.29;599951;236;40382;-67
2022/11/11 01:20:13;;;;;;;;;;;;;;;23.97;57.01;98060.29;599904;236;40466;-67
2022/11/11 01:22:59;;;;;;;;;;;;;;;23.96;57.30;98065.94;599974;236;38827;-68
2022/11/11 01:25:45;;;;;;;;;;;;;;;23.96;57.67;98055.20;599944;236;40092;-67
2022/11/11 01:28:31;;;;;;;;;;;;;;;23.95;58.28;98057.05;599958;236;40402;-67
2022/11/11 01:31:18;;;;;;;;;;;;;;;23.94;57.50;98058.13;599984;236;41336;-68
2022/11/11 01:34:03;;;;;;;;;;;;;;;23.93;56.80;98064.59;599940;236;40606;-68
2022/11/11 01:36:49;;;;;;;;;;;;;;;23.93;58.14;98060.02;599927;236;43243;-65
2022/11/11 01:39:34;;;;;;;;;;;;;;;23.92;58.03;98055.70;599964;236;39563;-66
2022/11/11 01:42:20;;;;;;;;;;;;;;;23.93;58.64;98059.22;599886;236;43338;-68
2022/11/11 01:45:07;;;;;;;;;;;;;;;23.91;57.94;98056.78;599931;236;40403;-67
2022/11/11 01:50:57;;;;;;;;;;;;;;;23.91;58.18;98047.93;600002;236;43452;-66
2022/11/11 01:53:43;;;;;;;;;;;;;;;23.89;57.90;98058.92;599906;236;40420;-66
2022/11/11 01:56:29;;;;;;;;;;;;;;;23.90;57.18;98067.80;599954;236;41135;-66
2022/11/11 01:59:16;;;;;;;;;;;;;;;23.89;58.70;98056.23;599930;236;44775;-65
2022/11/11 02:02:03;;;;;;;;;;;;;;;23.88;58.61;98056.52;599942;236;40575;-66
2022/11/11 02:07:53;;;;;;;;;;;;;;;23.86;57.64;98046.03;599971;236;40280;-66
2022/11/11 02:10:40;;;;;;;;;;;;;;;23.86;58.90;98045.23;599937;236;40327;-66
2022/11/11 02:16:30;;;;;;;;;;;;;;;23.84;58.97;98042.80;599909;235;40311;-66
2022/11/11 02:19:17;;;;;;;;;;;;;;;23.83;58.43;98043.88;599956;236;40082;-68
2022/11/11 02:22:02;;;;;;;;;;;;;;;23.83;57.60;98037.70;599940;236;39214;-67
2022/11/11 02:24:49;;;;;;;;;;;;;;;23.82;58.97;98041.48;599912;236;40424;-67
2022/11/11 02:27:35;;;;;;;;;;;;;;;23.82;58.33;98052.21;599892;236;44832;-67
2022/11/11 02:30:21;;;;;;;;;;;;;;;23.80;59.60;98048.98;599957;236;39201;-68
2022/11/11 02:33:06;;;;;;;;;;;;;;;23.79;58.13;98053.55;599912;236;44672;-67
2022/11/11 02:35:56;;;;;;;;;;;;;;;23.79;58.24;98061.59;599928;236;40408;-67
2022/11/11 02:38:43;;;;;;;;;;;;;;;23.79;58.46;98053.55;599973;236;40956;-67
2022/11/11 02:44:32;;;;;;;;;;;;;;;23.80;59.88;98067.77;599979;236;44514;-68
2022/11/11 02:47:18;;;;;;;;;;;;;;;23.77;56.57;98062.93;599961;236;38955;-67
2022/11/11 02:50:04;;;;;;;;;;;;;;;23.78;59.66;98062.65;599921;236;42999;-68
2022/11/11 02:52:49;;;;;;;;;;;;;;;23.76;58.67;98062.09;599926;236;40521;-69
2022/11/11 02:55:35;;;;;;;;;;;;;;;23.76;59.39;98064.78;599920;236;39433;-68
2022/11/11 02:58:21;;;;;;;;;;;;;;;23.75;57.78;98062.38;599905;236;40643;-68
2022/11/11 03:01:06;;;;;;;;;;;;;;;23.75;58.17;98062.38;599922;236;40419;-66
2022/11/11 03:03:52;;;;;;;;;;;;;;;23.74;57.74;98060.77;599946;236;39879;-66
2022/11/11 03:06:38;;;;;;;;;;;;;;;23.74;59.45;98056.20;599890;235;40386;-66
2022/11/11 03:09:23;;;;;;;;;;;;;;;23.72;58.67;98050.29;599894;236;40334;-67
2022/11/11 03:12:09;;;;;;;;;;;;;;;23.73;59.20;98053.78;599995;236;39055;-68
2022/11/11 03:14:55;;;;;;;;;;;;;;;23.72;58.53;98049.49;599982;235;40516;-68
2022/11/11 03:17:41;;;;;;;;;;;;;;;23.70;58.12;98042.46;599961;236;40428;-68
2022/11/11 03:23:30;;;;;;;;;;;;;;;23.70;59.08;98047.02;599933;234;40283;-68
2022/11/11 03:26:16;;;;;;;;;;;;;;;23.69;57.24;98046.23;599958;236;40402;-68
2022/11/11 03:29:01;;;;;;;;;;;;;;;23.69;58.70;98048.11;599955;236;41071;-67
2022/11/11 03:31:47;;;;;;;;;;;;;;;23.68;59.17;98051.84;599958;236;40566;-67
2022/11/11 03:34:33;;;;;;;;;;;;;;;23.67;59.24;98051.04;599947;236;40410;-67
2022/11/11 03:40:22;;;;;;;;;;;;;;;23.66;59.18;98048.64;599973;236;41986;-67
2022/11/11 03:43:08;;;;;;;;;;;;;;;23.66;59.71;98043.27;599931;236;40081;-67
2022/11/11 03:45:55;;;;;;;;;;;;;;;23.66;59.55;98040.59;599953;236;39698;-67
2022/11/11 03:48:40;;;;;;;;;;;;;;;23.64;57.47;98038.16;599989;236;43534;-67
2022/11/11 03:51:26;;;;;;;;;;;;;;;23.65;60.64;98039.78;599965;234;42128;-67
2022/11/11 03:54:11;;;;;;;;;;;;;;;23.63;58.67;98039.23;599966;236;39022;-67
2022/11/11 03:57:29;;;;;;;;;;;;;;;23.63;58.47;98031.19;599956;236;40412;-67
2022/11/11 03:59:44;;;;;;;;;;;;;;;23.60;59.95;98020.98;599885;234;40347;-67
2022/11/11 04:11:43;;;;;;;;;;;;;;;23.59;57.79;98037.33;600008;236;41055;-68
2022/11/11 04:17:29;;;;;;;;;;;;;;;23.57;59.73;98034.93;592076;236;43225;-68
2022/11/11 04:23:18;;;;;;;;;;;;;;;23.55;59.91;98037.06;599976;235;44635;-68
2022/11/11 04:26:03;;;;;;;;;;;;;;;23.55;59.36;98039.74;599958;235;40177;-68
2022/11/11 04:34:58;;;;;;;;;;;;;;;23.52;59.94;98032.22;599966;236;42708;-68
2022/11/11 04:37:50;;;;;;;;;;;;;;;23.52;59.38;98029.54;599956;236;41364;-68
2022/11/11 04:46:44;;;;;;;;;;;;;;;23.51;58.61;98030.59;599167;237;39088;-69
2022/11/11 04:49:30;;;;;;;;;;;;;;;23.51;59.27;98038.64;599146;237;44592;-69
2022/11/11 04:52:30;;;;;;;;;;;;;;;23.50;59.45;98039.72;599092;237;44424;-67
2022/11/11 04:58:21;;;;;;;;;;;;;;;23.49;58.84;98043.48;599114;237;43269;-67
2022/11/11 05:01:09;;;;;;;;;;;;;;;23.48;59.68;98053.38;599075;237;44801;-67
2022/11/11 05:03:54;;;;;;;;;;;;;;;23.47;60.11;98065.20;599132;237;39134;-67
2022/11/11 05:09:44;;;;;;;;;;;;;;;23.47;59.11;98067.08;599125;237;40082;-67
2022/11/11 05:12:29;;;;;;;;;;;;;;;23.46;59.45;98070.80;599141;237;39272;-66
2022/11/11 05:21:29;;;;;;;;;;;;;;;23.44;59.54;98075.65;599124;237;41083;-66
2022/11/11 05:27:20;;;;;;;;;;;;;;;23.43;59.98;98077.50;599093;237;40407;-66
2022/11/11 05:30:07;;;;;;;;;;;;;;;23.42;59.92;98075.09;598968;237;39740;-67
2022/11/11 05:32:55;;;;;;;;;;;;;;;23.42;60.55;98075.89;599029;237;43260;-66
2022/11/11 05:35:40;;;;;;;;;;;;;;;23.41;59.87;98087.70;599062;237;40342;-66
2022/11/11 05:38:26;;;;;;;;;;;;;;;23.41;60.80;98093.07;599154;237;38843;-67
2022/11/11 05:41:12;;;;;;;;;;;;;;;23.42;58.34;98099.23;599144;237;40004;-66
2022/11/11 05:43:57;;;;;;;;;;;;;;;23.41;58.50;98098.44;599115;235;44900;-65
2022/11/11 05:46:43;;;;;;;;;;;;;;;23.41;59.56;98094.95;599099;237;41091;-66
2022/11/11 05:49:29;;;;;;;;;;;;;;;23.42;60.53;98107.28;599106;237;44761;-66
2022/11/11 05:52:15;;;;;;;;;;;;;;;23.42;58.46;98107.28;599044;237;40429;-67
2022/11/11 05:55:01;;;;;;;;;;;;;;;23.42;58.92;98113.45;599136;237;39235;-67
2022/11/11 05:57:47;;;;;;;;;;;;;;;23.42;58.94;98118.81;599107;237;40396;-67
2022/11/11 06:00:32;;;;;;;;;;;;;;;23.43;61.02;98119.63;598696;237;44517;-67
2022/11/11 06:03:18;;;;;;;;;;;;;;;23.44;60.37;98126.63;599093;237;39663;-70
2022/11/11 06:06:04;;;;;;;;;;;;;;;23.43;60.70;98130.34;599093;237;40424;-68
2022/11/11 06:08:49;;;;;;;;;;;;;;;23.44;60.80;98137.35;599004;237;40357;-66
2022/11/11 06:11:35;;;;;;;;;;;;;;;23.44;58.34;98132.79;598717;237;41427;-66
2022/11/11 06:14:21;;;;;;;;;;;;;;;23.45;59.01;98139.75;598573;237;41939;-66
2022/11/11 06:17:06;;;;;;;;;;;;;;;23.46;59.87;98149.44;599101;237;40440;-66
2022/11/11 06:19:52;;;;;;;;;;;;;;;23.46;59.89;98141.39;599130;237;41123;-66
2022/11/11 06:22:56;;;;;;;;;;;;;;;23.46;57.06;98148.61;598852;237;43210;-66
2022/11/11 06:28:50;;;;;;;;;;;;;;;23.48;57.53;98158.02;598427;235;39072;-66
2022/11/11 06:31:35;;;;;;;;;;;;;;;23.49;60.07;98167.70;598968;237;40398;-66
2022/11/11 06:34:21;;;;;;;;;;;;;;;23.51;61.40;98170.11;598358;237;40127;-66
2022/11/11 06:37:07;;;;;;;;;;;;;;;23.52;60.85;98179.79;598684;237;41017;-66
2022/11/11 06:39:52;;;;;;;;;;;;;;;23.52;59.95;98187.00;599046;237;42044;-66
2022/11/11 06:42:38;;;;;;;;;;;;;;;23.53;60.11;98189.44;597871;236;40771;-67
2022/11/11 06:45:24;;;;;;;;;;;;;;;23.54;60.11;98201.78;596730;237;39202;-69
2022/11/11 06:48:10;;;;;;;;;;;;;;;23.54;60.46;98198.30;596773;237;44604;-66
2022/11/11 06:50:57;;;;;;;;;;;;;;;23.55;61.28;98203.41;596394;237;44625;-68
2022/11/11 06:53:43;;;;;;;;;;;;;;;23.55;59.76;98203.41;596737;237;39136;-65
2022/11/11 06:56:28;;;;;;;;;;;;;;;23.57;60.03;98212.02;596792;237;40409;-65
2022/11/11 06:59:14;;;;;;;;;;;;;;;23.58;60.12;98207.45;596774;237;40359;-67
2022/11/11 07:02:00;;;;;;;;;;;;;;;23.57;61.19;98209.34;596735;237;38890;-66
2022/11/11 07:04:45;;;;;;;;;;;;;;;23.59;60.20;98223.28;596743;237;44319;-71
2022/11/11 07:07:31;;;;;;;;;;;;;;;23.58;60.70;98213.62;596188;237;40444;-67
2022/11/11 07:10:17;;;;;;;;;;;;;;;23.57;60.71;98212.02;596716;237;39549;-66
2022/11/11 07:13:03;;;;;;;;;;;;;;;23.59;59.73;98220.60;596817;237;40528;-66
2022/11/11 07:15:48;;;;;;;;;;;;;;;23.60;58.78;98232.13;596638;237;40357;-70
2022/11/11 07:18:34;;;;;;;;;;;;;;;23.61;60.13;98239.14;596575;237;39067;-65
2022/11/11 07:21:20;;;;;;;;;;;;;;;23.62;59.76;98246.11;596746;237;40120;-66
2022/11/11 07:24:06;;;;;;;;;;;;;;;23.61;58.28;98241.83;596738;237;40357;-67
2022/11/11 07:26:52;;;;;;;;;;;;;;;23.63;60.12;98248.55;596765;237;39265;-68
2022/11/11 07:29:38;;;;;;;;;;;;;;;23.64;59.74;98255.52;596706;237;44721;-66
2022/11/11 07:32:23;;;;;;;;;;;;;;;23.63;61.33;98259.28;596767;237;44680;-65
2022/11/11 07:35:09;;;;;;;;;;;;;;;23.64;60.52;98268.94;596705;237;39244;-66
2022/11/11 07:37:54;;;;;;;;;;;;;;;23.64;60.68;98268.94;596734;237;44625;-65
2022/11/11 07:40:40;;;;;;;;;;;;;;;23.64;59.69;98270.82;596810;237;44851;-65
2022/11/11 07:43:26;;;;;;;;;;;;;;;23.64;60.15;98274.31;596715;236;39259;-64
2022/11/11 07:46:11;;;;;;;;;;;;;;;23.65;61.06;98278.63;596778;237;41941;-65
2022/11/11 07:48:57;;;;;;;;;;;;;;;23.64;61.66;98274.31;596763;237;40474;-69
2022/11/11 07:51:43;;;;;;;;;;;;;;;23.66;59.23;98282.92;597751;237;41380;-68
2022/11/11 07:54:29;;;;;;;;;;;;;;;23.67;59.03;98284.52;598013;237;40417;-67
2022/11/11 07:57:15;;;;;;;;;;;;;;;23.70;59.35;98291.25;597971;237;40099;-66
2022/11/11 08:00:00;;;;;;;;;;;;;;;23.68;59.74;98294.22;598029;237;39237;-69
2022/11/11 08:02:49;;;;;;;;;;;;;;;23.69;58.57;98290.45;598011;237;40388;-65
2022/11/11 08:05:34;;;;;;;;;;;;;;;23.70;59.63;98291.25;597985;237;40763;-72
2022/11/11 08:08:23;;;;;;;;;;;;;;;23.70;59.22;98297.42;598016;237;40081;-64
2022/11/11 08:11:07;;;;;;;;;;;;;;;23.72;58.84;98299.09;598046;235;44538;-63
2022/11/11 08:13:53;;;;;;;;;;;;;;;23.73;58.67;98309.55;598094;236;40425;-67
2022/11/11 08:16:38;;;;;;;;;;;;;;;23.73;60.24;98304.19;598020;237;39014;-67
2022/11/11 08:19:24;;;;;;;;;;;;;;;23.73;57.41;98306.87;597988;235;40292;-64
2022/11/11 08:22:10;;;;;;;;;;;;;;;23.75;59.33;98309.31;598047;237;40560;-64
2022/11/11 08:24:56;;;;;;;;;;;;;;;23.74;57.43;98324.61;597986;237;41076;-63
2022/11/11 08:27:42;;;;;;;;;;;;;;;23.76;57.36;98321.66;598031;237;42828;-68
2022/11/11 08:30:27;;;;;;;;;;;;;;;23.76;59.28;98321.66;598009;237;40420;-67
2022/11/11 08:33:13;;;;;;;;;;;;;;;23.76;59.53;98321.66;598007;237;40260;-65
2022/11/11 08:35:59;;;;;;;;;;;;;;;23.76;58.51;98316.28;598029;237;46343;-67
2022/11/11 08:38:45;;;;;;;;;;;;;;;23.75;56.70;98315.48;597979;237;40343;-66
2022/11/11 08:41:31;;;;;;;;;;;;;;;23.77;56.60;98324.09;598077;236;41200;-65
2022/11/11 08:44:16;;;;;;;;;;;;;;;23.79;55.85;98323.81;599929;236;44923;-65
2022/11/11 08:47:03;;;;;;;;;;;;;;;23.79;58.33;98321.13;599843;236;40333;-67
2022/11/11 08:49:51;;;;;;;;;;;;;;;23.77;57.48;98324.09;599930;236;38898;-68
2022/11/11 08:52:36;;;;;;;;;;;;;;;23.79;59.81;98321.13;599879;236;40103;-68
2022/11/11 08:55:22;;;;;;;;;;;;;;;23.79;57.74;98329.19;599889;235;40373;-67
2022/11/11 08:58:08;;;;;;;;;;;;;;;23.79;58.08;98329.19;599920;236;41097;-66
2022/11/11 09:00:54;;;;;;;;;;;;;;;23.79;57.06;98332.70;599802;236;39975;-67
2022/11/11 09:03:42;;;;;;;;;;;;;;;23.79;57.42;98338.08;599950;236;39211;-69
2022/11/11 09:06:28;;;;;;;;;;;;;;;23.80;58.26;98331.63;599884;236;40966;-67
2022/11/11 09:09:14;;;;;;;;;;;;;;;23.80;57.49;98330.83;599834;236;42944;-65
2022/11/11 09:12:00;;;;;;;;;;;;;;;23.80;56.56;98328.95;599936;236;40201;-64
2022/11/11 09:14:47;;;;;;;;;;;;;;;23.80;55.50;98330.83;599899;236;39093;-68
2022/11/11 09:17:32;;;;;;;;;;;;;;;23.81;57.85;98324.37;599864;236;44214;-66
2022/11/11 09:20:18;;;;;;;;;;;;;;;23.81;60.27;98325.18;599925;236;40195;-65
2022/11/11 09:23:04;;;;;;;;;;;;;;;23.82;58.21;98323.33;599860;236;39060;-67
2022/11/11 09:25:49;;;;;;;;;;;;;;;23.80;57.25;98337.00;599882;236;40406;-66
2022/11/11 09:28:35;;;;;;;;;;;;;;;23.81;58.04;98321.69;599799;236;40815;-64
2022/11/11 09:31:22;;;;;;;;;;;;;;;23.81;56.04;98325.18;599851;236;39130;-67
2022/11/11 09:34:07;;;;;;;;;;;;;;;23.82;60.55;98326.02;599853;236;40387;-67
2022/11/11 09:36:53;;;;;;;;;;;;;;;23.81;56.67;98321.69;599796;236;44677;-66
2022/11/11 09:39:39;;;;;;;;;;;;;;;23.82;58.65;98315.28;599888;236;39727;-67
2022/11/11 09:42:32;;;;;;;;;;;;;;;23.83;56.08;98316.88;599848;236;40301;-67
2022/11/11 09:45:22;;;;;;;;;;;;;;;23.83;59.13;98314.20;598988;236;40475;-67
2022/11/11 09:48:16;;;;;;;;;;;;;;;23.81;56.87;98310.95;599921;236;38853;-68
2022/11/11 09:51:03;;;;;;;;;;;;;;;23.80;57.17;98301.30;599875;236;39974;-66
2022/11/11 09:53:50;;;;;;;;;;;;;;;23.80;58.01;98304.78;599878;236;40547;-66
2022/11/11 09:56:38;;;;;;;;;;;;;;;23.80;58.38;98301.30;599828;236;39885;-65
2022/11/11 09:59:25;;;;;;;;;;;;;;;23.80;59.71;98301.30;599851;236;43723;-66
2022/11/11 10:02:12;;;;;;;;;;;;;;;23.79;57.36;98297.81;598491;236;40443;-67
2022/11/11 10:05:14;;;;;;;;;;;;;;;23.80;57.33;98301.30;598384;237;40022;-66
2022/11/11 10:08:17;;;;;;;;;;;;;;;23.79;58.15;98299.66;598418;237;40398;-66
2022/11/11 10:11:04;;;;;;;;;;;;;;;23.79;56.46;98299.66;598462;237;40437;-65
2022/11/11 10:13:49;;;;;;;;;;;;;;;23.81;56.99;98300.22;598410;237;40995;-68
2022/11/11 10:16:39;;;;;;;;;;;;;;;23.82;57.11;98299.17;598447;237;40400;-67
2022/11/11 10:19:33;;;;;;;;;;;;;;;23.82;57.84;98296.48;598435;237;40432;-66
2022/11/11 10:22:20;;;;;;;;;;;;;;;23.83;55.79;98292.72;598471;237;39110;-65
2022/11/11 10:25:15;;;;;;;;;;;;;;;23.84;56.41;98295.13;598427;237;40394;-68
2022/11/11 10:28:01;;;;;;;;;;;;;;;23.85;56.21;98288.72;598492;237;40506;-67
2022/11/11 10:30:49;;;;;;;;;;;;;;;23.86;55.84;98294.89;598459;237;39133;-67
2022/11/11 10:33:49;;;;;;;;;;;;;;;23.88;56.06;98298.12;598463;237;43140;-66
2022/11/11 10:36:35;;;;;;;;;;;;;;;23.90;56.61;98296.00;598392;237;40332;-68
2022/11/11 10:39:22;;;;;;;;;;;;;;;23.92;55.55;98293.84;598494;237;39144;-66
2022/11/11 10:42:09;;;;;;;;;;;;;;;23.93;54.25;98296.28;598897;236;40303;-65
2022/11/11 10:44:56;;;;;;;;;;;;;;;23.95;56.03;98287.95;600209;236;44388;-74
2022/11/11 10:47:49;;;;;;;;;;;;;;;23.98;55.49;98297.37;600212;236;39724;-65
2022/11/11 10:50:36;;;;;;;;;;;;;;;24.01;55.73;98297.68;600217;236;40303;-65
2022/11/11 10:53:23;;;;;;;;;;;;;;;24.02;55.23;98299.28;600187;236;40641;-74
2022/11/11 10:56:26;;;;;;;;;;;;;;;24.04;53.92;98291.78;600233;236;40212;-73
2022/11/11 10:59:19;;;;;;;;;;;;;;;24.07;55.41;98293.95;600259;236;40316;-74
2022/11/11 11:02:07;;;;;;;;;;;;;;;24.09;53.68;98294.50;600197;236;40533;-74
2022/11/11 11:04:54;;;;;;;;;;;;;;;24.11;54.25;98280.80;593149;236;39199;-73
2022/11/11 11:07:44;;;;;;;;;;;;;;;24.13;53.89;98289.41;600186;236;43386;-74
2022/11/11 11:10:43;;;;;;;;;;;;;;;24.14;55.52;98283.80;600222;236;40545;-73
2022/11/11 11:13:49;;;;;;;;;;;;;;;24.14;52.83;98281.11;600280;236;41082;-74
2022/11/11 11:16:49;;;;;;;;;;;;;;;24.18;53.79;98277.89;600186;236;44353;-74
2022/11/11 11:19:29;;;;;;;;;;;;;;;24.18;55.90;98277.89;600283;236;43199;-76
2022/11/11 11:22:17;;;;;;;;;;;;;;;24.19;53.81;98272.25;600250;236;41150;-74
2022/11/11 11:25:05;;;;;;;;;;;;;;;24.21;53.64;98269.31;600219;236;43514;-77
2022/11/11 11:27:52;;;;;;;;;;;;;;;24.23;56.11;98276.04;600239;236;40340;-75
2022/11/11 11:30:39;;;;;;;;;;;;;;;24.26;52.20;98272.02;600097;236;41096;-76
2022/11/11 11:33:24;;;;;;;;;;;;;;;24.27;52.95;98273.63;600285;236;41892;-76
2022/11/11 11:36:12;;;;;;;;;;;;;;;24.29;51.90;98274.19;600276;236;40349;-74
2022/11/11 11:38:59;;;;;;;;;;;;;;;24.30;52.07;98275.79;600169;236;39215;-76
2022/11/11 11:41:50;;;;;;;;;;;;;;;24.32;51.97;98274.45;600274;236;39392;-75
2022/11/11 11:44:36;;;;;;;;;;;;;;;24.34;51.40;98269.64;600204;236;43178;-68
2022/11/11 11:47:26;;;;;;;;;;;;;;;24.36;52.18;98274.73;600259;236;39172;-68
2022/11/11 11:50:19;;;;;;;;;;;;;;;24.38;51.72;98268.03;600306;236;40479;-67
2022/11/11 11:53:16;;;;;;;;;;;;;;;24.40;51.59;98266.98;600186;236;40340;-68
2022/11/11 11:56:21;;;;;;;;;;;;;;;24.43;53.85;98269.94;600219;236;39226;-67
2022/11/11 11:59:08;;;;;;;;;;;;;;;24.44;52.05;98268.88;599474;236;40444;-68
2022/11/11 12:02:02;;;;;;;;;;;;;;;24.45;51.66;98270.52;600161;236;40336;-71
2022/11/11 12:05:05;;;;;;;;;;;;;;;24.46;51.58;98266.75;600248;236;39154;-71
2022/11/11 12:07:56;;;;;;;;;;;;;;;24.47;51.92;98260.33;600213;236;44549;-70
2022/11/11 12:10:43;;;;;;;;;;;;;;;24.50;51.36;98267.86;600259;236;44370;-68
2022/11/11 12:13:33;;;;;;;;;;;;;;;24.51;51.43;98268.66;600233;236;39829;-67
2022/11/11 12:16:26;;;;;;;;;;;;;;;24.51;51.54;98266.77;600277;236;40330;-67
2022/11/11 12:19:19;;;;;;;;;;;;;;;24.53;51.25;98263.84;600262;236;40757;-69
2022/11/11 12:22:09;;;;;;;;;;;;;;;24.54;51.73;98263.55;600272;236;39183;-72
2022/11/11 12:24:58;;;;;;;;;;;;;;;24.56;51.19;98264.11;600207;236;40590;-68
2022/11/11 12:28:01;;;;;;;;;;;;;;;24.57;51.17;98259.53;597890;236;40365;-68
2022/11/11 12:30:53;;;;;;;;;;;;;;;24.59;52.20;98255.52;600251;236;39163;-67
2022/11/11 12:33:41;;;;;;;;;;;;;;;24.61;52.36;98246.36;598470;236;40466;-72
2022/11/11 12:36:31;;;;;;;;;;;;;;;24.64;51.95;98256.61;600289;236;44794;-72
2022/11/11 12:39:23;;;;;;;;;;;;;;;24.66;51.44;98259.82;598488;236;39786;-72
2022/11/11 12:42:17;;;;;;;;;;;;;;;24.67;51.81;98256.08;599569;236;44379;-72
2022/11/11 12:45:07;;;;;;;;;;;;;;;24.67;51.91;98256.08;598225;237;40332;-72
2022/11/11 12:48:13;;;;;;;;;;;;;;;24.68;51.37;98260.38;595925;237;41205;-71
2022/11/11 12:51:00;;;;;;;;;;;;;;;24.68;51.75;98253.11;598177;237;43599;-73
2022/11/11 12:53:47;;;;;;;;;;;;;;;24.69;51.74;98259.29;598211;237;44478;-73
2022/11/11 12:56:46;;;;;;;;;;;;;;;24.69;52.13;98265.50;598172;237;39163;-75
2022/11/11 12:59:35;;;;;;;;;;;;;;;24.71;51.91;98251.77;598221;237;40519;-73
2022/11/11 13:02:23;;;;;;;;;;;;;;;24.72;52.35;98248.03;598149;236;40512;-73
2022/11/11 13:05:10;;;;;;;;;;;;;;;24.74;53.16;98245.86;598218;237;39361;-75
2022/11/11 13:08:00;;;;;;;;;;;;;;;24.74;51.64;98245.86;598213;237;43689;-74
2022/11/11 13:10:55;;;;;;;;;;;;;;;24.76;51.42;98241.03;598075;237;44543;-73
2022/11/11 13:13:48;;;;;;;;;;;;;;;24.77;52.51;98242.64;598226;237;39880;-70
2022/11/11 13:16:34;;;;;;;;;;;;;;;24.77;52.57;98243.47;598153;237;44648;-74
2022/11/11 13:19:34;;;;;;;;;;;;;;;24.79;53.18;98248.56;598242;237;40430;-74
2022/11/11 13:22:27;;;;;;;;;;;;;;;24.80;52.06;98250.20;598266;237;41021;-75
2022/11/11 13:25:14;;;;;;;;;;;;;;;24.80;52.55;98250.20;598164;237;44937;-71
2022/11/11 13:28:01;;;;;;;;;;;;;;;24.81;52.32;98257.98;598243;237;40336;-74
2022/11/11 13:30:54;;;;;;;;;;;;;;;24.81;52.85;98259.87;598140;237;41193;-73
2022/11/11 13:33:51;;;;;;;;;;;;;;;24.84;51.75;98258.53;598169;237;44697;-72
2022/11/11 13:36:41;;;;;;;;;;;;;;;24.84;52.04;98263.91;598197;237;39882;-71
2022/11/11 13:39:34;;;;;;;;;;;;;;;24.84;51.83;98261.22;598194;237;41384;-70
2022/11/11 13:42:24;;;;;;;;;;;;;;;24.84;51.71;98264.71;598180;237;40112;-74
2022/11/11 13:45:11;;;;;;;;;;;;;;;24.85;52.76;98263.63;598131;237;44530;-74
2022/11/11 13:47:57;;;;;;;;;;;;;;;24.85;53.72;98262.83;598222;235;38831;-73
2022/11/11 13:50:43;;;;;;;;;;;;;;;24.85;51.88;98263.63;598169;237;40022;-71
2022/11/11 13:53:30;;;;;;;;;;;;;;;24.80;51.08;98272.51;598445;237;42932;-73
2022/11/11 13:56:20;;;;;;;;;;;;;;;24.84;52.78;98271.98;599087;237;41373;-73
2022/11/11 13:59:07;;;;;;;;;;;;;;;24.84;52.21;98275.47;599041;237;40128;-67
2022/11/11 14:02:11;;;;;;;;;;;;;;;24.85;52.43;98265.52;599072;237;44468;-72
2022/11/11 14:05:05;;;;;;;;;;;;;;;24.85;51.54;98276.27;599068;237;38909;-69
2022/11/11 14:07:53;;;;;;;;;;;;;;;24.85;51.34;98279.76;599004;237;44460;-71
2022/11/11 14:10:41;;;;;;;;;;;;;;;24.86;53.29;98280.59;599055;237;40415;-67
2022/11/11 14:13:33;;;;;;;;;;;;;;;24.86;53.86;98284.08;598917;237;39626;-70
2022/11/11 14:16:25;;;;;;;;;;;;;;;24.86;52.15;98292.15;599042;237;43431;-70
2022/11/11 14:19:18;;;;;;;;;;;;;;;24.89;52.22;98296.99;598841;236;40343;-68
2022/11/11 14:22:22;;;;;;;;;;;;;;;24.89;52.15;98296.19;599004;237;39735;-69
2022/11/11 14:25:12;;;;;;;;;;;;;;;24.89;52.01;98291.61;599060;237;40305;-69
2022/11/11 14:27:58;;;;;;;;;;;;;;;24.92;51.80;98296.45;598976;237;40430;-69
2022/11/11 14:30:44;;;;;;;;;;;;;;;24.93;51.76;98295.38;599045;237;39200;-69
2022/11/11 14:33:31;;;;;;;;;;;;;;;24.92;51.57;98299.14;599056;237;43523;-72
2022/11/11 14:36:28;;;;;;;;;;;;;;;24.94;52.79;98299.70;598961;237;44559;-70
2022/11/11 14:39:22;;;;;;;;;;;;;;;24.95;51.88;98300.50;599045;237;39274;-70
2022/11/11 14:42:25;;;;;;;;;;;;;;;24.95;53.34;98301.30;599133;236;40367;-69
2022/11/11 14:45:25;;;;;;;;;;;;;;;24.96;52.80;98302.10;599880;236;44391;-67
2022/11/11 14:48:28;;;;;;;;;;;;;;;24.97;54.58;98299.16;599889;236;39084;-67
2022/11/11 14:51:32;;;;;;;;;;;;;;;24.97;52.68;98301.05;599860;236;40385;-69
2022/11/11 14:54:23;;;;;;;;;;;;;;;24.97;53.37;98303.73;599811;236;43155;-68
2022/11/11 14:57:09;;;;;;;;;;;;;;;24.98;52.72;98299.96;593182;236;39211;-69
2022/11/11 14:59:55;;;;;;;;;;;;;;;24.97;52.72;98301.84;599871;236;39708;-68
2022/11/11 15:02:49;;;;;;;;;;;;;;;24.99;52.67;98306.95;599886;236;44150;-68
2022/11/11 15:05:36;;;;;;;;;;;;;;;24.98;51.79;98306.14;599911;236;39233;-69
2022/11/11 15:08:23;;;;;;;;;;;;;;;24.99;53.50;98318.53;599853;236;40270;-66
2022/11/11 15:11:19;;;;;;;;;;;;;;;24.99;52.05;98318.53;599731;236;40673;-68
2022/11/11 15:14:10;;;;;;;;;;;;;;;25.00;51.96;98314.77;599904;236;39112;-68
2022/11/11 15:17:14;;;;;;;;;;;;;;;25.00;52.04;98320.14;599845;236;40288;-68
2022/11/11 15:20:01;;;;;;;;;;;;;;;25.01;52.50;98327.13;599827;236;40408;-68
2022/11/11 15:22:54;;;;;;;;;;;;;;;25.01;52.64;98321.75;599833;236;39055;-67
2022/11/11 15:25:41;;;;;;;;;;;;;;;25.00;55.33;98320.14;599829;236;44605;-67
2022/11/11 15:28:35;;;;;;;;;;;;;;;25.00;52.47;98322.83;599900;236;44464;-67
2022/11/11 15:31:25;;;;;;;;;;;;;;;25.00;52.97;98325.52;594495;236;39470;-67
2022/11/11 15:34:12;;;;;;;;;;;;;;;24.99;53.38;98321.23;599854;236;40088;-66
2022/11/11 15:37:02;;;;;;;;;;;;;;;25.00;52.48;98324.72;599849;236;40307;-65
2022/11/11 15:39:49;;;;;;;;;;;;;;;24.99;52.57;98323.91;599824;236;39555;-66
2022/11/11 15:42:39;;;;;;;;;;;;;;;25.01;51.93;98326.32;599859;235;43586;-66
2022/11/11 15:45:29;;;;;;;;;;;;;;;25.01;53.06;98331.70;599910;236;40400;-68
2022/11/11 15:48:20;;;;;;;;;;;;;;;24.99;53.81;98337.36;599818;236;39166;-69
2022/11/11 15:51:15;;;;;;;;;;;;;;;24.98;52.97;98335.73;599921;236;40313;-68
2022/11/11 15:54:12;;;;;;;;;;;;;;;24.96;54.07;98332.52;599970;236;40393;-72
2022/11/11 15:56:57;;;;;;;;;;;;;;;24.95;55.60;98336.26;599931;236;39899;-67
2022/11/11 15:59:43;;;;;;;;;;;;;;;24.94;53.53;98342.72;599917;236;44524;-67
2022/11/11 16:02:30;;;;;;;;;;;;;;;24.95;52.42;98341.64;599908;236;40433;-67